Time;durP1;ratioP1;P1;durP2;ratioP2;P2;SDS_P1;SDS_P2;PMS_P1;PMS_P2;Temp;Humidity;BMP_temperature;BMP_pressure;BME280_temperature;BME280_humidity;BME280_pressure;Samples;Min_cycle;Max_cycle;Signal;HPM_P1;HPM_P2
2023/09/10 00:00:55;;;;;;;22.07;16.83;;;;;19.70;101263.00;;;;4915133;29;20299;-70
2023/09/10 00:03:41;;;;;;;23.70;17.10;;;;;19.70;101271.00;;;;4925637;29;20247;-72
2023/09/10 00:06:28;;;;;;;20.10;16.27;;;;;19.70;101261.00;;;;4927955;28;20889;-72
2023/09/10 00:09:14;;;;;;;22.43;17.17;;;;;19.70;101261.00;;;;4926113;29;20970;-72
2023/09/10 00:12:01;;;;;;;21.33;16.80;;;;;19.60;101259.00;;;;4924297;29;20316;-71
2023/09/10 00:14:47;;;;;;;21.07;16.77;;;;;19.60;101261.00;;;;4919951;28;20237;-74
2023/09/10 00:17:34;;;;;;;21.07;17.20;;;;;19.60;101258.00;;;;4921553;28;20238;-70
2023/09/10 00:20:21;;;;;;;23.03;16.90;;;;;19.60;101261.00;;;;4921070;28;20256;-71
2023/09/10 00:23:07;;;;;;;23.07;17.77;;;;;19.50;101268.00;;;;4920131;29;20237;-70
2023/09/10 00:25:55;;;;;;;19.07;16.13;;;;;19.50;101265.00;;;;4921210;28;20609;-72
2023/09/10 00:28:41;;;;;;;20.93;16.17;;;;;19.50;101262.00;;;;4910598;28;20391;-70
2023/09/10 00:31:27;;;;;;;20.57;15.93;;;;;19.50;101258.00;;;;4922921;29;20238;-72
2023/09/10 00:34:15;;;;;;;22.33;17.17;;;;;19.50;101259.00;;;;4918791;29;20240;-72
2023/09/10 00:37:02;;;;;;;25.37;17.97;;;;;19.50;101254.00;;;;4925990;29;20241;-73
2023/09/10 00:39:48;;;;;;;24.00;18.37;;;;;19.50;101261.00;;;;4915156;29;20298;-71
2023/09/10 00:42:34;;;;;;;22.97;17.20;;;;;19.40;101256.00;;;;4915246;29;20234;-73
2023/09/10 00:45:21;;;;;;;23.67;17.83;;;;;19.40;101261.00;;;;4919713;28;20236;-70
2023/09/10 00:48:07;;;;;;;24.13;17.97;;;;;19.40;101255.00;;;;4925016;28;20241;-73
2023/09/10 00:50:55;;;;;;;22.57;18.17;;;;;19.40;101250.00;;;;4918634;28;20289;-73
2023/09/10 00:53:42;;;;;;;22.07;17.63;;;;;19.30;101257.00;;;;4924454;29;20258;-71
2023/09/10 00:56:28;;;;;;;20.60;17.30;;;;;19.30;101256.00;;;;4927927;29;20231;-72
2023/09/10 00:59:15;;;;;;;26.00;18.37;;;;;19.30;101248.00;;;;4926216;29;20239;-71
2023/09/10 01:02:02;;;;;;;25.00;18.17;;;;;19.30;101255.00;;;;4921822;29;20757;-71
2023/09/10 01:04:50;;;;;;;27.30;18.90;;;;;19.30;101245.00;;;;4922547;29;20278;-72
2023/09/10 01:07:38;;;;;;;23.90;19.70;;;;;19.20;101250.00;;;;4923534;29;20250;-71
2023/09/10 01:10:27;;;;;;;26.07;19.33;;;;;19.20;101246.00;;;;4921434;28;20230;-71
2023/09/10 01:13:21;;;;;;;25.60;19.57;;;;;19.20;101245.00;;;;4918939;29;20240;-72
2023/09/10 01:16:12;;;;;;;24.40;18.80;;;;;19.20;101255.00;;;;4923653;29;20752;-72
2023/09/10 01:19:05;;;;;;;22.77;18.27;;;;;19.20;101247.00;;;;4922573;28;20315;-73
2023/09/10 01:21:56;;;;;;;25.93;19.30;;;;;19.20;101252.00;;;;4916601;29;20241;-72
2023/09/10 01:24:49;;;;;;;25.03;18.77;;;;;19.20;101244.00;;;;4920282;28;20323;-70
2023/09/10 01:27:35;;;;;;;26.67;18.73;;;;;19.10;101242.00;;;;4914510;29;20648;-73
2023/09/10 01:30:21;;;;;;;26.20;19.27;;;;;19.10;101249.00;;;;4921772;28;20305;-72
2023/09/10 01:33:14;;;;;;;25.73;18.83;;;;;19.10;101249.00;;;;4919783;28;20260;-73
2023/09/10 01:36:06;;;;;;;24.07;18.37;;;;;19.10;101246.00;;;;4917569;29;20258;-73
2023/09/10 01:39:02;;;;;;;24.80;18.93;;;;;19.10;101248.00;;;;4917505;28;20227;-73
2023/09/10 01:41:51;;;;;;;24.70;18.53;;;;;19.10;101252.00;;;;4924308;29;20362;-72
2023/09/10 01:44:39;;;;;;;25.80;18.80;;;;;19.00;101257.00;;;;4911155;29;20229;-72
2023/09/10 01:47:26;;;;;;;26.20;19.10;;;;;19.00;101254.00;;;;4922174;28;20671;-74
2023/09/10 01:50:14;;;;;;;23.23;18.53;;;;;19.00;101250.00;;;;4924607;29;20236;-72
2023/09/10 01:53:01;;;;;;;24.67;19.40;;;;;19.00;101254.00;;;;4927857;28;20290;-72
2023/09/10 01:55:48;;;;;;;29.47;19.63;;;;;19.00;101253.00;;;;4918407;28;20246;-72
2023/09/10 01:58:35;;;;;;;26.27;19.83;;;;;19.00;101250.00;;;;4924079;29;20703;-72
2023/09/10 02:01:22;;;;;;;28.80;21.53;;;;;19.00;101250.00;;;;4925325;29;20234;-72
2023/09/10 02:04:11;;;;;;;28.97;21.40;;;;;19.00;101250.00;;;;4921495;28;20332;-72
2023/09/10 02:06:57;;;;;;;27.97;20.63;;;;;19.00;101247.00;;;;4911116;29;20720;-73
2023/09/10 02:09:44;;;;;;;28.20;20.57;;;;;18.90;101250.00;;;;4916823;29;20232;-72
2023/09/10 02:12:30;;;;;;;27.00;19.33;;;;;18.90;101251.00;;;;4925135;29;20235;-72
2023/09/10 02:15:18;;;;;;;24.80;19.90;;;;;18.90;101253.00;;;;4912822;29;20323;-73
2023/09/10 02:18:05;;;;;;;24.00;19.10;;;;;18.80;101249.00;;;;4917666;29;20232;-76
2023/09/10 02:20:51;;;;;;;29.10;21.10;;;;;18.80;101258.00;;;;4917801;29;20259;-70
2023/09/10 02:23:39;;;;;;;26.70;20.43;;;;;18.90;101246.00;;;;4921846;28;20715;-72
2023/09/10 02:26:25;;;;;;;26.67;20.93;;;;;18.80;101255.00;;;;4917844;28;20923;-72
2023/09/10 02:29:11;;;;;;;29.73;21.37;;;;;18.80;101255.00;;;;4915956;29;20254;-75
2023/09/10 02:31:59;;;;;;;26.37;21.13;;;;;18.80;101260.00;;;;4917082;29;20237;-73
2023/09/10 02:34:45;;;;;;;27.53;20.57;;;;;18.80;101256.00;;;;4914150;29;20245;-72
2023/09/10 02:37:32;;;;;;;26.40;20.13;;;;;18.80;101258.00;;;;4917315;28;20736;-74
2023/09/10 02:40:18;;;;;;;26.00;19.23;;;;;18.80;101264.00;;;;4922345;29;20230;-73
2023/09/10 02:43:04;;;;;;;25.70;19.80;;;;;18.70;101266.00;;;;4924080;29;20240;-72
2023/09/10 02:45:51;;;;;;;27.87;20.20;;;;;18.70;101256.00;;;;4917174;29;20238;-72
2023/09/10 02:48:38;;;;;;;27.53;20.93;;;;;18.70;101263.00;;;;4925673;28;20752;-73
2023/09/10 02:51:25;;;;;;;24.70;19.53;;;;;18.70;101265.00;;;;4922086;28;20245;-72
2023/09/10 02:54:11;;;;;;;26.33;19.23;;;;;18.70;101265.00;;;;4917412;29;20239;-72
2023/09/10 02:56:57;;;;;;;26.27;20.17;;;;;18.70;101267.00;;;;4914829;29;20232;-72
2023/09/10 02:59:44;;;;;;;29.13;20.63;;;;;18.60;101264.00;;;;4912568;29;20236;-72
2023/09/10 03:02:30;;;;;;;26.07;19.93;;;;;18.60;101268.00;;;;4924479;29;20304;-73
2023/09/10 03:05:18;;;;;;;27.93;20.50;;;;;18.60;101268.00;;;;4914304;29;20362;-74
2023/09/10 03:08:06;;;;;;;26.03;19.93;;;;;18.60;101264.00;;;;4918314;29;20249;-77
2023/09/10 03:10:52;;;;;;;26.27;20.33;;;;;18.50;101259.00;;;;4918048;29;20900;-73
2023/09/10 03:13:38;;;;;;;26.43;19.97;;;;;18.50;101270.00;;;;4919987;29;20286;-71
2023/09/10 03:16:24;;;;;;;26.87;20.47;;;;;18.50;101271.00;;;;4923037;29;20324;-72
2023/09/10 03:19:11;;;;;;;28.63;21.50;;;;;18.40;101269.00;;;;4917579;29;20622;-73
2023/09/10 03:21:59;;;;;;;29.50;21.90;;;;;18.40;101271.00;;;;4919062;29;20261;-71
2023/09/10 03:24:45;;;;;;;27.03;20.97;;;;;18.40;101271.00;;;;4912098;28;20230;-74
2023/09/10 03:27:32;;;;;;;28.57;21.10;;;;;18.30;101273.00;;;;4916535;29;20296;-73
2023/09/10 03:30:18;;;;;;;26.60;20.53;;;;;18.30;101263.00;;;;4915948;29;20761;-72
2023/09/10 03:33:05;;;;;;;28.93;21.97;;;;;18.30;101263.00;;;;4911720;29;20366;-72
2023/09/10 03:35:52;;;;;;;28.27;21.37;;;;;18.30;101263.00;;;;4916173;29;20249;-72
2023/09/10 03:38:40;;;;;;;31.80;21.33;;;;;18.30;101252.00;;;;4918706;28;20360;-73
2023/09/10 03:41:27;;;;;;;27.80;20.73;;;;;18.20;101263.00;;;;4910293;29;20240;-71
2023/09/10 03:44:13;;;;;;;28.50;20.30;;;;;18.20;101262.00;;;;4922504;28;20228;-72
2023/09/10 03:47:01;;;;;;;25.60;20.17;;;;;18.20;101264.00;;;;4913183;29;20238;-72
2023/09/10 03:49:47;;;;;;;29.57;20.93;;;;;18.20;101267.00;;;;4925229;28;20245;-71
2023/09/10 03:52:33;;;;;;;26.17;19.83;;;;;18.10;101263.00;;;;4907770;29;20266;-74
2023/09/10 03:55:21;;;;;;;25.77;20.80;;;;;18.10;101258.00;;;;4914377;29;20232;-72
2023/09/10 03:58:07;;;;;;;25.30;19.47;;;;;18.10;101255.00;;;;4920195;29;20237;-73
2023/09/10 04:00:54;;;;;;;25.10;19.17;;;;;18.10;101264.00;;;;4921310;29;20236;-72
2023/09/10 04:03:40;;;;;;;24.43;19.83;;;;;18.10;101259.00;;;;4925282;29;20815;-74
2023/09/10 04:06:26;;;;;;;26.43;20.40;;;;;18.10;101257.00;;;;4913631;28;20252;-74
2023/09/10 04:09:12;;;;;;;27.40;21.20;;;;;18.00;101257.00;;;;4916969;29;20639;-70
2023/09/10 04:12:00;;;;;;;27.27;21.53;;;;;18.00;101257.00;;;;4915927;29;20237;-73
2023/09/10 04:14:47;;;;;;;27.07;21.73;;;;;18.00;101258.00;;;;4916033;29;20280;-72
2023/09/10 04:17:33;;;;;;;26.33;21.40;;;;;18.00;101263.00;;;;4916635;29;20245;-72
2023/09/10 04:20:21;;;;;;;30.60;21.67;;;;;18.00;101259.00;;;;4909887;29;20758;-72
2023/09/10 04:23:07;;;;;;;30.57;21.90;;;;;18.00;101268.00;;;;4918759;29;20623;-72
2023/09/10 04:25:53;;;;;;;28.27;21.87;;;;;18.00;101258.00;;;;4921299;29;20245;-72
2023/09/10 04:28:41;;;;;;;27.93;21.23;;;;;18.00;101257.00;;;;4918887;29;20259;-72
2023/09/10 04:31:28;;;;;;;26.43;20.30;;;;;18.00;101267.00;;;;4920739;29;20248;-72
2023/09/10 04:34:14;;;;;;;28.57;20.63;;;;;18.00;101263.00;;;;4925563;29;20259;-72
2023/09/10 04:37:02;;;;;;;26.27;20.23;;;;;18.00;101263.00;;;;4920406;28;20429;-72
2023/09/10 04:39:48;;;;;;;28.63;21.07;;;;;18.00;101258.00;;;;4914299;29;20233;-71
2023/09/10 04:42:35;;;;;;;28.83;21.07;;;;;18.00;101260.00;;;;4919947;29;20256;-74
2023/09/10 04:45:23;;;;;;;28.63;21.33;;;;;17.90;101264.00;;;;4917817;29;20225;-72
2023/09/10 04:48:12;;;;;;;30.23;21.23;;;;;17.90;101260.00;;;;4922363;29;20711;-72
2023/09/10 04:50:59;;;;;;;31.73;21.57;;;;;17.90;101266.00;;;;4918047;29;20242;-71
2023/09/10 04:53:46;;;;;;;28.40;21.30;;;;;18.00;101262.00;;;;4914577;29;20229;-72
2023/09/10 04:56:32;;;;;;;26.17;20.93;;;;;17.90;101259.00;;;;4928014;29;20229;-72
2023/09/10 04:59:18;;;;;;;25.27;20.07;;;;;17.90;101266.00;;;;4925179;29;20244;-73
2023/09/10 05:02:06;;;;;;;27.33;20.53;;;;;17.90;101262.00;;;;4925823;29;20626;-72
2023/09/10 05:04:52;;;;;;;28.77;21.23;;;;;17.90;101263.00;;;;4918305;29;20317;-71
2023/09/10 05:07:38;;;;;;;28.27;21.60;;;;;17.90;101268.00;;;;4921081;29;20236;-70
2023/09/10 05:10:25;;;;;;;27.43;21.23;;;;;17.90;101272.00;;;;4923810;29;20341;-71
2023/09/10 05:13:11;;;;;;;31.63;22.77;;;;;17.90;101269.00;;;;4919001;29;20662;-71
2023/09/10 05:15:57;;;;;;;30.60;21.80;;;;;17.90;101268.00;;;;4927485;29;20304;-72
2023/09/10 05:18:47;;;;;;;29.13;22.73;;;;;17.90;101270.00;;;;4916294;29;20232;-72
2023/09/10 05:21:33;;;;;;;28.27;22.57;;;;;17.90;101270.00;;;;4925905;29;20262;-73
2023/09/10 05:24:20;;;;;;;30.67;21.80;;;;;17.90;101271.00;;;;4917902;28;20230;-71
2023/09/10 05:27:06;;;;;;;33.20;22.07;;;;;18.00;101271.00;;;;4918443;29;20236;-73
2023/09/10 05:29:52;;;;;;;31.07;21.17;;;;;18.00;101270.00;;;;4923605;29;20241;-74
2023/09/10 05:32:39;;;;;;;30.67;21.30;;;;;18.00;101277.00;;;;4920624;29;20315;-72
2023/09/10 05:35:27;;;;;;;28.90;21.87;;;;;18.10;101272.00;;;;4923545;29;20278;-73
2023/09/10 05:38:13;;;;;;;30.47;22.57;;;;;18.10;101275.00;;;;4918219;28;20715;-73
2023/09/10 05:41:02;;;;;;;30.57;22.40;;;;;18.20;101279.00;;;;4914934;28;20237;-71
2023/09/10 05:43:48;;;;;;;30.23;21.27;;;;;18.20;101277.00;;;;4914141;29;20281;-71
2023/09/10 05:46:35;;;;;;;28.87;22.73;;;;;18.20;101294.00;;;;4918168;29;20722;-72
2023/09/10 05:49:21;;;;;;;28.27;20.93;;;;;18.30;101283.00;;;;4925349;28;20735;-72
2023/09/10 05:52:09;;;;;;;27.40;21.97;;;;;18.30;101286.00;;;;4920028;29;20238;-72
2023/09/10 05:54:55;;;;;;;27.70;21.30;;;;;18.40;101286.00;;;;4914756;29;20221;-72
2023/09/10 05:57:41;;;;;;;28.93;22.80;;;;;18.50;101287.00;;;;4917025;29;20710;-70
2023/09/10 06:00:28;;;;;;;29.97;23.47;;;;;18.50;101287.00;;;;4922651;29;20234;-71
2023/09/10 06:03:14;;;;;;;31.93;24.47;;;;;18.60;101284.00;;;;4925430;28;20280;-70
2023/09/10 06:06:01;;;;;;;29.90;24.37;;;;;18.60;101286.00;;;;4926824;29;20606;-70
2023/09/10 06:08:49;;;;;;;33.80;24.43;;;;;18.70;101281.00;;;;4923087;29;20392;-70
2023/09/10 06:11:35;;;;;;;34.63;26.83;;;;;18.80;101289.00;;;;4922657;29;20296;-71
2023/09/10 06:14:21;;;;;;;36.13;28.73;;;;;18.90;101288.00;;;;4918566;28;20237;-71
2023/09/10 06:17:07;;;;;;;36.70;28.23;;;;;18.90;101286.00;;;;4916386;29;20237;-71
2023/09/10 06:19:54;;;;;;;38.57;29.60;;;;;19.00;101288.00;;;;4917393;29;20736;-71
2023/09/10 06:22:42;;;;;;;40.77;31.50;;;;;19.10;101295.00;;;;4920403;29;20238;-70
2023/09/10 06:25:30;;;;;;;40.73;30.87;;;;;19.20;101293.00;;;;4923598;29;20808;-70
2023/09/10 06:28:18;;;;;;;40.13;31.23;;;;;19.20;101295.00;;;;4922750;29;20828;-70
2023/09/10 06:31:05;;;;;;;39.80;30.70;;;;;19.30;101298.00;;;;4920558;29;20815;-69
2023/09/10 06:33:51;;;;;;;42.60;32.47;;;;;19.40;101306.00;;;;4916541;29;20234;-69
2023/09/10 06:36:38;;;;;;;44.70;32.37;;;;;19.40;101305.00;;;;4918704;28;20723;-71
2023/09/10 06:39:25;;;;;;;45.20;33.43;;;;;19.50;101304.00;;;;4921395;28;20321;-69
2023/09/10 06:42:13;;;;;;;42.00;32.57;;;;;19.50;101303.00;;;;4925672;29;20238;-69
2023/09/10 06:45:00;;;;;;;46.27;34.20;;;;;19.60;101305.00;;;;4923546;28;20453;-71
2023/09/10 06:47:46;;;;;;;45.80;34.87;;;;;19.60;101306.00;;;;4918036;29;20372;-71
2023/09/10 06:50:32;;;;;;;49.80;34.13;;;;;19.70;101310.00;;;;4932476;28;20238;-72
2023/09/10 06:53:19;;;;;;;41.10;32.30;;;;;19.70;101305.00;;;;4922114;29;20306;-72
2023/09/10 06:56:05;;;;;;;45.63;34.63;;;;;19.80;101303.00;;;;4920570;29;20234;-70
2023/09/10 06:58:53;;;;;;;43.27;33.50;;;;;19.90;101312.00;;;;4915239;29;20232;-71
2023/09/10 07:01:39;;;;;;;44.33;33.57;;;;;19.90;101316.00;;;;4924801;29;20298;-72
2023/09/10 07:04:26;;;;;;;49.30;35.53;;;;;20.00;101318.00;;;;4927782;29;20286;-73
2023/09/10 07:07:12;;;;;;;46.47;34.50;;;;;20.10;101314.00;;;;4914655;29;20236;-75
2023/09/10 07:09:59;;;;;;;50.87;37.13;;;;;20.20;101307.00;;;;4921210;29;20242;-71
2023/09/10 07:12:45;;;;;;;46.60;35.57;;;;;20.20;101315.00;;;;4918683;28;20234;-70
2023/09/10 07:15:33;;;;;;;48.60;36.33;;;;;20.30;101313.00;;;;4921532;29;20271;-72
2023/09/10 07:18:19;;;;;;;54.70;38.37;;;;;20.40;101314.00;;;;4919554;29;20724;-72
2023/09/10 07:21:06;;;;;;;50.73;37.90;;;;;20.50;101310.00;;;;4926767;29;20313;-70
2023/09/10 07:23:52;;;;;;;46.17;35.90;;;;;20.50;101305.00;;;;4922897;28;20231;-72
2023/09/10 07:26:38;;;;;;;50.17;38.30;;;;;20.60;101312.00;;;;4917838;29;20275;-70
2023/09/10 07:29:24;;;;;;;51.00;38.50;;;;;20.70;101323.00;;;;4914098;29;20241;-72
2023/09/10 07:32:12;;;;;;;49.80;38.97;;;;;20.80;101319.00;;;;4922059;29;20380;-72
2023/09/10 07:34:59;;;;;;;54.63;40.10;;;;;20.90;101316.00;;;;4916649;29;20277;-72
2023/09/10 07:37:46;;;;;;;52.67;38.60;;;;;21.00;101324.00;;;;4914983;28;20308;-72
2023/09/10 07:40:32;;;;;;;56.17;39.40;;;;;21.10;101322.00;;;;4922291;29;20599;-72
2023/09/10 07:43:19;;;;;;;51.83;38.40;;;;;21.20;101329.00;;;;4915926;29;20246;-71
2023/09/10 07:46:05;;;;;;;52.67;39.10;;;;;21.30;101323.00;;;;4920857;28;20236;-72
2023/09/10 07:48:53;;;;;;;54.00;39.47;;;;;21.40;101329.00;;;;4927317;28;20303;-69
2023/09/10 07:51:40;;;;;;;51.47;39.37;;;;;21.50;101327.00;;;;4913263;29;20459;-73
2023/09/10 07:54:26;;;;;;;53.13;37.07;;;;;21.60;101331.00;;;;4911978;29;20269;-72
2023/09/10 07:57:12;;;;;;;49.47;37.73;;;;;21.60;101335.00;;;;4920034;29;20709;-73
2023/09/10 08:00:01;;;;;;;53.20;38.23;;;;;21.70;101329.00;;;;4919658;29;20794;-71
2023/09/10 08:02:49;;;;;;;49.20;38.83;;;;;21.90;101332.00;;;;4921061;29;20725;-71
2023/09/10 08:05:36;;;;;;;49.67;38.50;;;;;22.00;101334.00;;;;4922749;29;20307;-73
2023/09/10 08:08:23;;;;;;;46.87;36.13;;;;;22.10;101332.00;;;;4918197;28;20277;-73
2023/09/10 08:11:09;;;;;;;50.63;35.17;;;;;22.20;101341.00;;;;4908250;29;20240;-71
2023/09/10 08:13:55;;;;;;;47.07;35.30;;;;;22.30;101342.00;;;;4922860;28;20237;-71
2023/09/10 08:16:42;;;;;;;47.37;36.27;;;;;22.40;101341.00;;;;4915983;29;20756;-72
2023/09/10 08:19:28;;;;;;;45.23;35.10;;;;;22.50;101344.00;;;;4921464;29;20674;-73
2023/09/10 08:22:16;;;;;;;43.33;33.07;;;;;22.60;101352.00;;;;4918695;29;20228;-72
2023/09/10 08:25:04;;;;;;;43.90;33.17;;;;;22.70;101349.00;;;;4921546;28;20229;-73
2023/09/10 08:27:51;;;;;;;44.43;32.37;;;;;22.90;101338.00;;;;4920054;29;20233;-73
2023/09/10 08:30:37;;;;;;;43.03;32.90;;;;;22.90;101338.00;;;;4918971;28;20237;-73
2023/09/10 08:33:25;;;;;;;42.47;31.80;;;;;23.10;101331.00;;;;4920662;28;20603;-72
2023/09/10 08:36:11;;;;;;;40.87;31.50;;;;;23.20;101334.00;;;;4917451;29;20300;-71
2023/09/10 08:38:59;;;;;;;40.83;31.03;;;;;23.40;101333.00;;;;4927272;28;20240;-71
2023/09/10 08:41:52;;;;;;;37.90;30.20;;;;;23.50;101343.00;;;;4930141;28;20276;-71
2023/09/10 08:44:43;;;;;;;36.40;29.50;;;;;23.60;101332.00;;;;4927759;29;20241;-72
2023/09/10 08:47:33;;;;;;;39.67;30.50;;;;;23.80;101336.00;;;;4920928;28;20757;-72
2023/09/10 08:50:20;;;;;;;35.93;29.77;;;;;23.90;101337.00;;;;4923924;28;20240;-72
2023/09/10 08:53:11;;;;;;;38.80;29.10;;;;;24.00;101342.00;;;;4916704;29;20236;-71
2023/09/10 08:56:00;;;;;;;33.63;27.20;;;;;24.20;101336.00;;;;4930568;29;20699;-73
2023/09/10 08:58:49;;;;;;;38.40;28.27;;;;;24.30;101334.00;;;;4921957;29;20730;-73
2023/09/10 09:01:36;;;;;;;32.70;26.10;;;;;24.50;101329.00;;;;4922974;29;20313;-71
2023/09/10 09:04:24;;;;;;;35.50;26.50;;;;;24.60;101328.00;;;;4926750;28;20252;-70
2023/09/10 09:07:13;;;;;;;35.07;27.03;;;;;24.70;101331.00;;;;4918652;28;20257;-72
2023/09/10 09:10:03;;;;;;;31.47;26.37;;;;;24.80;101327.00;;;;4914173;29;20366;-72
2023/09/10 09:12:55;;;;;;;30.23;25.27;;;;;24.90;101324.00;;;;4922843;29;20276;-72
2023/09/10 09:15:42;;;;;;;30.67;25.15;;;;;25.10;101324.00;;;;4921768;29;20246;-71
2023/09/10 09:18:29;;;;;;;27.48;22.52;;;;;25.30;101327.00;;;;4924255;29;20230;-71
2023/09/10 09:21:18;;;;;;;34.00;24.23;;;;;25.40;101318.00;;;;4924633;29;20244;-72
2023/09/10 09:24:07;;;;;;;26.83;22.52;;;;;25.40;101320.00;;;;4925860;28;20320;-70
2023/09/10 09:26:54;;;;;;;27.50;21.98;;;;;25.60;101320.00;;;;4927463;28;20730;-70
2023/09/10 09:29:42;;;;;;;28.92;21.05;;;;;25.70;101326.00;;;;4925063;29;20651;-69
2023/09/10 09:32:28;;;;;;;25.92;20.80;;;;;25.70;101313.00;;;;4927190;29;20241;-70
2023/09/10 09:35:15;;;;;;;23.40;18.40;;;;;25.80;101313.00;;;;4926447;28;20814;-70
2023/09/10 09:38:06;;;;;;;21.33;17.95;;;;;25.80;101317.00;;;;4925827;29;20296;-67
2023/09/10 09:40:54;;;;;;;28.73;18.13;;;;;25.90;101314.00;;;;4923147;29;20708;-70
2023/09/10 09:43:40;;;;;;;22.50;18.92;;;;;26.00;101313.00;;;;4923525;28;20478;-69
2023/09/10 09:46:32;;;;;;;20.85;16.92;;;;;26.10;101306.00;;;;4925829;28;20232;-69
2023/09/10 09:49:19;;;;;;;20.98;16.45;;;;;26.20;101308.00;;;;4927321;29;20237;-70
2023/09/10 09:52:06;;;;;;;19.52;15.65;;;;;26.30;101306.00;;;;4924726;28;20249;-69
2023/09/10 09:54:52;;;;;;;20.50;15.73;;;;;26.50;101310.00;;;;4915999;29;20237;-68
2023/09/10 09:57:38;;;;;;;26.08;15.77;;;;;26.50;101306.00;;;;4926061;29;20384;-70
2023/09/10 10:00:25;;;;;;;19.80;16.27;;;;;26.60;101311.00;;;;4927652;28;20229;-71
2023/09/10 10:03:13;;;;;;;17.33;15.25;;;;;26.70;101304.00;;;;4920783;29;20297;-70
2023/09/10 10:05:59;;;;;;;18.20;14.45;;;;;26.90;101303.00;;;;4926525;29;20769;-69
2023/09/10 10:08:49;;;;;;;20.42;13.68;;;;;26.90;101301.00;;;;4919509;29;20241;-69
2023/09/10 10:11:36;;;;;;;20.00;15.13;;;;;27.10;101304.00;;;;4926512;29;20249;-68
2023/09/10 10:14:23;;;;;;;21.10;13.52;;;;;27.20;101296.00;;;;4925013;29;20357;-68
2023/09/10 10:17:11;;;;;;;16.50;12.85;;;;;27.30;101290.00;;;;4919435;28;20237;-71
2023/09/10 10:20:01;;;;;;;17.30;12.43;;;;;27.40;101302.00;;;;4926138;29;20729;-70
2023/09/10 10:22:47;;;;;;;15.30;13.07;;;;;27.50;101294.00;;;;4924164;29;20730;-70
2023/09/10 10:25:36;;;;;;;17.30;13.10;;;;;27.60;101297.00;;;;4918069;29;20237;-70
2023/09/10 10:28:22;;;;;;;19.20;12.43;;;;;27.70;101297.00;;;;4927137;29;20389;-70
2023/09/10 10:31:14;;;;;;;17.55;12.40;;;;;27.90;101293.00;;;;4922085;29;20241;-67
2023/09/10 10:34:03;;;;;;;17.25;12.13;;;;;28.00;101292.00;;;;4918062;29;20245;-69
2023/09/10 10:37:02;;;;;;;16.25;11.93;;;;;28.10;101290.00;;;;4924673;29;20292;-70
2023/09/10 10:39:55;;;;;;;19.40;11.48;;;;;28.20;101290.00;;;;4921291;29;21019;-70
2023/09/10 10:42:49;;;;;;;16.23;11.85;;;;;28.30;101287.00;;;;4926349;29;20253;-70
2023/09/10 10:45:36;;;;;;;17.02;11.10;;;;;28.40;101284.00;;;;4915478;29;20240;-71
2023/09/10 10:48:26;;;;;;;19.17;11.20;;;;;28.40;101275.00;;;;4921548;29;20300;-69
2023/09/10 10:51:16;;;;;;;19.52;12.20;;;;;28.50;101271.00;;;;4917269;28;20259;-70
2023/09/10 10:54:04;;;;;;;12.20;10.88;;;;;28.70;101282.00;;;;4916905;29;20237;-71
2023/09/10 10:56:51;;;;;;;13.95;11.05;;;;;28.80;101277.00;;;;4922067;29;20276;-71
2023/09/10 10:59:38;;;;;;;11.85;9.85;;;;;28.90;101272.00;;;;4916224;29;20252;-71
2023/09/10 11:02:25;;;;;;;17.27;10.02;;;;;28.90;101275.00;;;;4927639;29;20694;-72
2023/09/10 11:05:11;;;;;;;18.73;10.52;;;;;29.00;101273.00;;;;4923864;29;20237;-71
2023/09/10 11:08:25;;;;;;;16.05;10.48;;;;;29.10;101277.00;;;;4919111;28;20241;-69
2023/09/10 11:11:45;;;;;;;15.60;10.10;;;;;29.20;101261.00;;;;4914338;29;20241;-70
2023/09/10 11:15:12;;;;;;;11.85;9.50;;;;;29.40;101266.00;;;;4924725;29;20300;-69
2023/09/10 11:18:41;;;;;;;14.23;9.93;;;;;29.40;101259.00;;;;4915901;29;20631;-69
2023/09/10 11:22:02;;;;;;;14.75;9.80;;;;;29.40;101259.00;;;;4912627;28;20641;-68
2023/09/10 11:25:00;;;;;;;15.07;10.48;;;;;29.50;101261.00;;;;4923003;29;20717;-69
2023/09/10 11:27:52;;;;;;;13.45;9.05;;;;;29.70;101249.00;;;;4914751;29;20245;-70
2023/09/10 11:30:39;;;;;;;12.95;8.55;;;;;29.90;101255.00;;;;4916996;29;20260;-70
2023/09/10 11:33:30;;;;;;;12.82;8.80;;;;;29.90;101255.00;;;;4920482;28;20729;-69
2023/09/10 11:36:17;;;;;;;15.65;8.68;;;;;29.90;101251.00;;;;4918781;29;20228;-69
2023/09/10 11:39:04;;;;;;;13.43;8.80;;;;;29.90;101249.00;;;;4919206;29;20228;-69
2023/09/10 11:41:52;;;;;;;13.45;8.20;;;;;29.90;101254.00;;;;4918716;29;20480;-70
2023/09/10 11:44:40;;;;;;;18.38;8.25;;;;;29.80;101252.00;;;;4922961;29;20240;-70
2023/09/10 11:47:27;;;;;;;16.63;8.73;;;;;30.10;101252.00;;;;4928215;29;20245;-70
2023/09/10 11:50:15;;;;;;;18.20;7.97;;;;;30.30;101255.00;;;;4929862;28;20278;-67
2023/09/10 11:53:01;;;;;;;14.88;8.50;;;;;30.40;101259.00;;;;4927767;28;20244;-70
2023/09/10 11:55:48;;;;;;;16.83;9.20;;;;;30.50;101252.00;;;;4921158;29;20232;-70
2023/09/10 11:58:37;;;;;;;17.23;8.10;;;;;30.50;101250.00;;;;4920506;29;20283;-70
2023/09/10 12:01:25;;;;;;;15.52;7.47;;;;;30.60;101261.00;;;;4926636;29;20242;-69
2023/09/10 12:04:13;;;;;;;17.05;7.75;;;;;30.60;101255.00;;;;4928286;28;20365;-68
2023/09/10 12:07:00;;;;;;;13.73;8.30;;;;;30.60;101256.00;;;;4929542;29;20241;-69
2023/09/10 12:09:46;;;;;;;13.65;7.47;;;;;30.80;101255.00;;;;4927869;29;20760;-69
2023/09/10 12:12:35;;;;;;;15.45;8.95;;;;;30.80;101261.00;;;;4928175;28;20738;-70
2023/09/10 12:15:21;;;;;;;13.77;7.47;;;;;30.80;101252.00;;;;4924035;29;20236;-70
2023/09/10 12:18:09;;;;;;;19.55;8.10;;;;;30.90;101253.00;;;;4927323;29;20233;-71
2023/09/10 12:20:57;;;;;;;19.65;7.47;;;;;31.00;101257.00;;;;4924035;28;20303;-70
2023/09/10 12:23:44;;;;;;;19.10;7.47;;;;;31.00;101253.00;;;;4926038;28;20847;-69
2023/09/10 12:26:30;;;;;;;12.15;6.65;;;;;31.10;101248.00;;;;4922905;29;21168;-68
2023/09/10 12:29:17;;;;;;;15.10;7.38;;;;;31.20;101249.00;;;;4919614;29;20233;-68
2023/09/10 12:32:04;;;;;;;13.98;6.85;;;;;31.30;101246.00;;;;4928550;28;20301;-71
2023/09/10 12:34:52;;;;;;;19.83;7.50;;;;;31.30;101242.00;;;;4926569;29;20253;-67
2023/09/10 12:37:47;;;;;;;15.75;7.70;;;;;31.40;101238.00;;;;4923560;28;20245;-70
2023/09/10 12:40:34;;;;;;;17.52;7.78;;;;;31.50;101248.00;;;;4924956;29;20241;-70
2023/09/10 12:43:21;;;;;;;13.80;7.07;;;;;31.60;101237.00;;;;4924758;29;20261;-69
2023/09/10 12:46:07;;;;;;;16.25;7.82;;;;;31.50;101240.00;;;;4920515;29;20309;-70
2023/09/10 12:48:54;;;;;;;16.98;8.00;;;;;31.50;101238.00;;;;4928839;28;20248;-70
2023/09/10 12:51:42;;;;;;;22.65;8.25;;;;;31.50;101234.00;;;;4927628;29;20237;-72
2023/09/10 12:54:28;;;;;;;17.80;7.53;;;;;31.50;101230.00;;;;4923758;29;20233;-70
2023/09/10 12:57:15;;;;;;;14.05;7.22;;;;;31.60;101250.00;;;;4919829;29;20229;-70
2023/09/10 13:00:03;;;;;;;15.52;7.45;;;;;31.70;101240.00;;;;4928253;29;20236;-69
2023/09/10 13:02:50;;;;;;;13.27;7.47;;;;;31.70;101245.00;;;;4927942;29;20746;-69
2023/09/10 13:05:36;;;;;;;19.15;7.55;;;;;31.90;101236.00;;;;4925314;28;20370;-70
2023/09/10 13:08:24;;;;;;;14.70;6.78;;;;;31.90;101232.00;;;;4926321;29;20304;-70
2023/09/10 13:11:10;;;;;;;14.63;7.60;;;;;31.80;101234.00;;;;4925730;29;20338;-69
2023/09/10 13:13:57;;;;;;;13.73;7.40;;;;;31.90;101229.00;;;;4924120;28;20695;-69
2023/09/10 13:16:43;;;;;;;14.30;6.85;;;;;31.90;101228.00;;;;4927658;29;20308;-71
2023/09/10 13:19:30;;;;;;;15.20;7.28;;;;;32.00;101228.00;;;;4926107;29;20284;-69
2023/09/10 13:22:16;;;;;;;14.50;7.43;;;;;31.80;101226.00;;;;4923213;29;20241;-69
2023/09/10 13:25:04;;;;;;;16.08;7.53;;;;;31.90;101229.00;;;;4925225;28;20236;-69
2023/09/10 13:27:51;;;;;;;13.70;8.02;;;;;31.60;101230.00;;;;4923780;28;20818;-71
2023/09/10 13:30:39;;;;;;;12.07;7.93;;;;;31.60;101221.00;;;;4909586;29;20762;-70